OMDBOIBK

Guest
Details From OMDB - DUBAI INTL
To OIBK - Kish Island
Flight Number -
Tags generated
Created
Modified
Stats Distance 107 nm / 198 km
Max Altitude 6,300 ft / 1,920 m
Waypoints 3
Social Downloads 3
Likes 0
Share VATSIM

Download

Looking for another format? Having issues loading an existing format? Contact us
Advertisement - Login to hide

Notes

Basic altitude profile: - Ascent Rate: 2500ft/min - Ascent Speed: 100kts - Cruise Altitude: 35000ft - Cruise Speed: 180kts - Descent Rate: 1500ft/min - Descent Speed: 180kts Options: - Use NATs: yes - Use PACOTS: yes - Use low airways: yes - Use high airways: yes

Route

OMDB RAGOL OIBK

ID Type Via Altitude Latitude Longitude Leg Dist Tot Dist Heading (true) Name
O OMDB APT - 0 ft / 0 m 25.25491˚ 55.36426˚ - 0 nm - DUBAI INTL
RAGOL FIX - 6,300 ft / 1,920 m 25.46194˚ 55.12750˚ 17 nm 17 nm 314° / 314° -
O OIBK APT - 0 ft / 0 m 26.52701˚ 53.98024˚ 89 nm 106 nm 316° / 316° Kish Island

Altitude Profile

Advertisement - Login to hide

OMDB

Details ICAO OMDB (DXB)
Name DUBAI INTL
Region United Arab Emirates
Timezone Asia/Dubai (UTC+4.0)
Stats Elevation 62 ft / 19 m (AMSL)
Location 25.254912° 55.364260°
Runways 2
Magnetic Variation 2.068° E

METAR

OMDB 270200Z 16005KT CAVOK 32/17 Q1005 NOSIG

Decode

TAF

TAF OMDB 262307Z 2700/2806 12005KT CAVOK BECMG 2702/2704 18010KT BECMG 2708/2710 31012KT BECMG 2715/2717 12005KT BECMG 2802/2804 18010KT

Decode

Departure Runways

ID Width Length Bearing (true) Bearing (mag) Surface Threshold Offset Overrun Length
12L 197 ft / 60 m 13,124 ft / 4,000 m 121.49° 119.42° Asphalt 1,312 ft / 400 m 395 ft / 120 m
12R 151 ft / 46 m 13,139 ft / 4,005 m 121.48° 119.41° Asphalt 394 ft / 120 m 197 ft / 60 m
30L 151 ft / 46 m 13,139 ft / 4,005 m 301.50° 299.43° Asphalt 2,953 ft / 900 m 197 ft / 60 m
30R 197 ft / 60 m 13,124 ft / 4,000 m 301.51° 299.44° Asphalt 0 ft / 0 m 395 ft / 120 m

OIBK

Details ICAO OIBK (KIH)
Name Kish Island
Region Iran
Timezone Asia/Tehran (UTC+4.5)
Stats Elevation 101 ft / 31 m (AMSL)
Location 26.527005° 53.980242°
Runways 3
Magnetic Variation 2.449° E

METAR

OIBK 270200Z 19008KT 2500 BR FEW035 BKN170 27/25 Q1004

Decode

TAF

TAF OIBK 261730Z 2618/2724 27003MPS 4000 HZ NSC BECMG 2620/2622 3000 BR BECMG 2704/2706 7000 SCT100

Decode

Destination Runways

ID Width Length Bearing (true) Bearing (mag) Surface Threshold Offset Overrun Length
09 148 ft / 45 m 11,986 ft / 3,653 m 94.89° 92.44° Asphalt 0 ft / 0 m 1,181 ft / 360 m
09L 215 ft / 66 m 11,986 ft / 3,653 m 94.88° 92.43° Asphalt 0 ft / 0 m 0 ft / 0 m
09R 148 ft / 45 m 11,986 ft / 3,653 m 94.89° 92.44° Asphalt 0 ft / 0 m 1,181 ft / 360 m
27 148 ft / 45 m 11,986 ft / 3,653 m 274.91° 272.46° Asphalt 0 ft / 0 m 190 ft / 58 m
27L 148 ft / 45 m 11,986 ft / 3,653 m 274.90° 272.45° Asphalt 0 ft / 0 m 190 ft / 58 m
27R 215 ft / 66 m 11,986 ft / 3,653 m 274.90° 272.45° Asphalt 0 ft / 0 m 0 ft / 0 m

Popular Alternatives